Terminal Aerodrome Forecast
Issued by NWS

Home | Current Version | Previous Version | Text Only | Print | Product List | Glossary On
Versions: 1 2 3 4 5 6 7 8 9 10 11 12 13 14 15 16 17 18 19
015
FTPA31 PHFO 191120
TAFHLI
TAF
PHLI 191120Z 1912/2012 07014KT P6SM VCSH SCT015 BKN020 BKN040
      TEMPO 1912/1916 5SM -SHRA BKN020 OVC035
     FM191700 07014G23KT P6SM VCSH SCT015 BKN025 BKN045=

USA.gov is the U.S. government's official web portal to all federal, state and local government web resources and services.